Time;durP1;ratioP1;P1;durP2;ratioP2;P2;SDS_P1;SDS_P2;PMS_P1;PMS_P2;Temp;Humidity;BMP_temperature;BMP_pressure;BME280_temperature;BME280_humidity;BME280_pressure;Samples;Min_cycle;Max_cycle;Signal;HPM_P1;HPM_P2
2021/05/11 00:00:04;;;;;;;8.05;4.10;;;14.50;90.20;;;;;;5105823;27;20048;-51
2021/05/11 00:02:40;;;;;;;7.07;3.50;;;14.50;90.20;;;;;;5098888;27;20051;-47
2021/05/11 00:05:07;;;;;;;9.27;3.78;;;14.50;90.20;;;;;;5109329;28;20047;-48
2021/05/11 00:07:33;;;;;;;7.28;4.05;;;14.50;90.20;;;;;;5107707;27;20142;-46
2021/05/11 00:10:05;;;;;;;7.07;3.83;;;14.50;90.30;;;;;;5108680;28;20586;-48
2021/05/11 00:12:33;;;;;;;6.13;3.65;;;14.50;90.30;;;;;;5106482;27;20040;-48
2021/05/11 00:14:59;;;;;;;8.68;4.30;;;14.40;90.20;;;;;;5088578;28;20080;-47
2021/05/11 00:17:25;;;;;;;9.15;3.70;;;14.50;90.30;;;;;;5090998;27;20054;-46
2021/05/11 00:19:54;;;;;;;7.13;4.22;;;14.50;90.30;;;;;;5088000;28;20052;-47
2021/05/11 00:22:20;;;;;;;9.23;4.05;;;14.40;90.40;;;;;;5093371;28;20058;-48
2021/05/11 00:24:46;;;;;;;8.45;4.03;;;14.50;90.40;;;;;;5096785;27;20496;-48
2021/05/11 00:27:12;;;;;;;7.60;4.53;;;14.40;90.50;;;;;;5094143;27;20285;-47
2021/05/11 00:29:38;;;;;;;8.35;5.03;;;14.30;90.70;;;;;;5105123;28;20071;-48
2021/05/11 00:32:08;;;;;;;7.90;4.82;;;14.30;90.60;;;;;;5095938;27;20052;-48
2021/05/11 00:34:34;;;;;;;6.93;4.57;;;14.40;90.70;;;;;;5101580;27;20126;-47
2021/05/11 00:37:05;;;;;;;7.25;5.20;;;14.30;90.80;;;;;;5087494;28;20139;-46
2021/05/11 00:39:33;;;;;;;8.13;5.25;;;14.30;91.00;;;;;;5089225;28;20083;-48
2021/05/11 00:42:01;;;;;;;8.32;5.65;;;14.30;91.00;;;;;;5102249;27;20131;-51
2021/05/11 00:44:28;;;;;;;7.22;5.30;;;14.30;91.30;;;;;;5105367;27;20059;-47
2021/05/11 00:46:59;;;;;;;7.82;6.15;;;14.20;91.40;;;;;;5095004;27;20055;-47
2021/05/11 00:49:30;;;;;;;8.52;6.03;;;14.20;91.70;;;;;;5087340;28;20139;-47
2021/05/11 00:52:00;;;;;;;10.75;6.30;;;14.10;91.60;;;;;;5103354;27;20183;-48
2021/05/11 00:54:26;;;;;;;7.20;5.00;;;14.20;91.50;;;;;;5114443;28;20114;-46
2021/05/11 00:56:54;;;;;;;10.38;5.80;;;14.10;91.50;;;;;;5098764;27;20047;-47
2021/05/11 00:59:28;;;;;;;7.53;5.85;;;14.10;91.50;;;;;;5106814;28;20040;-47
2021/05/11 01:01:56;;;;;;;9.70;6.97;;;14.10;91.80;;;;;;5100194;28;20138;-46
2021/05/11 01:04:23;;;;;;;10.73;6.65;;;14.10;92.30;;;;;;5107357;28;20089;-47
2021/05/11 01:06:52;;;;;;;10.50;6.53;;;14.00;92.40;;;;;;5105038;28;20052;-47
2021/05/11 01:09:18;;;;;;;7.65;6.20;;;14.00;92.40;;;;;;5108489;28;20047;-47
2021/05/11 01:11:46;;;;;;;7.97;6.43;;;14.00;92.40;;;;;;5070788;28;20043;-49
2021/05/11 01:14:14;;;;;;;8.77;6.18;;;14.00;92.30;;;;;;5107526;28;20124;-46
2021/05/11 01:16:43;;;;;;;9.50;6.45;;;13.90;92.50;;;;;;5097135;27;20082;-52
2021/05/11 01:19:17;;;;;;;6.85;5.95;;;13.90;92.80;;;;;;5086808;28;20389;-47
2021/05/11 01:24:32;;;;;;;11.27;6.90;;;13.90;93.10;;;;;;5087816;28;20621;-45
2021/05/11 01:29:44;;;;;;;11.23;7.20;;;13.80;93.30;;;;;;5084999;28;20086;-47
2021/05/11 01:46:29;;;;;;;8.55;7.25;;;13.70;93.50;;;;;;5093183;28;20048;-46
2021/05/11 02:24:13;;;;;;;13.15;10.20;;;13.50;95.60;;;;;;5017475;28;20072;-47
2021/05/11 02:26:39;;;;;;;13.02;10.55;;;13.40;95.50;;;;;;5023582;28;20053;-47
2021/05/11 02:29:05;;;;;;;12.65;11.35;;;13.50;95.60;;;;;;5027120;28;20081;-47
2021/05/11 02:31:31;;;;;;;13.13;10.20;;;13.50;95.70;;;;;;5023158;28;20053;-47
2021/05/11 02:33:57;;;;;;;16.45;10.80;;;13.50;95.90;;;;;;5027213;28;20053;-46
2021/05/11 02:36:23;;;;;;;13.40;10.77;;;13.50;95.80;;;;;;5030200;28;20051;-44
2021/05/11 02:38:51;;;;;;;13.18;10.35;;;13.50;95.80;;;;;;5009547;28;20045;-46
2021/05/11 02:41:17;;;;;;;11.95;10.70;;;13.50;96.00;;;;;;5024535;28;20045;-45
2021/05/11 02:43:44;;;;;;;14.35;12.13;;;13.50;96.00;;;;;;5026491;28;20050;-44
2021/05/11 02:46:10;;;;;;;11.35;10.13;;;13.50;95.90;;;;;;5009463;28;20057;-44
2021/05/11 02:48:36;;;;;;;15.27;12.23;;;13.30;96.00;;;;;;5023991;28;20065;-45
2021/05/11 02:51:02;;;;;;;15.43;12.55;;;13.30;96.00;;;;;;5011202;28;20149;-46
2021/05/11 02:53:28;;;;;;;13.88;11.15;;;13.30;96.00;;;;;;5060324;28;20148;-46
2021/05/11 02:55:55;;;;;;;17.30;13.40;;;13.20;96.00;;;;;;5089564;28;20052;-48
2021/05/11 02:58:22;;;;;;;16.25;12.77;;;13.20;96.40;;;;;;5097551;27;20047;-46
2021/05/11 03:00:49;;;;;;;12.40;11.02;;;13.20;96.90;;;;;;5103227;28;20055;-47
2021/05/11 03:03:15;;;;;;;14.90;13.30;;;13.20;96.50;;;;;;5109640;27;20043;-47
2021/05/11 03:05:41;;;;;;;16.27;12.65;;;13.10;96.40;;;;;;5109993;28;20048;-51
2021/05/11 03:08:07;;;;;;;15.45;12.50;;;13.10;96.70;;;;;;5107664;28;20047;-47
2021/05/11 03:10:33;;;;;;;10.65;8.45;;;13.10;97.00;;;;;;5109866;28;20051;-47
2021/05/11 03:12:59;;;;;;;10.50;8.93;;;13.00;96.80;;;;;;5106402;27;20056;-45
2021/05/11 03:15:32;;;;;;;9.95;8.70;;;13.00;97.00;;;;;;5093538;28;20731;-47
2021/05/11 03:17:58;;;;;;;13.93;10.80;;;13.00;97.10;;;;;;5091038;28;20059;-46
2021/05/11 03:20:24;;;;;;;11.50;8.85;;;13.00;97.20;;;;;;5107956;27;20051;-49
2021/05/11 03:22:50;;;;;;;10.82;9.18;;;13.00;96.90;;;;;;5110036;28;20056;-48
2021/05/11 03:25:16;;;;;;;6.93;6.05;;;12.90;97.00;;;;;;5108791;27;20140;-45
2021/05/11 03:27:42;;;;;;;7.25;5.65;;;12.90;96.90;;;;;;5106848;27;20051;-46
2021/05/11 03:30:09;;;;;;;7.15;5.82;;;12.90;96.80;;;;;;5083716;28;20048;-47
2021/05/11 03:32:35;;;;;;;9.63;6.65;;;12.80;96.90;;;;;;5090151;27;20048;-46
2021/05/11 03:35:04;;;;;;;8.15;6.30;;;12.70;97.40;;;;;;5097907;27;20134;-46
2021/05/11 03:37:30;;;;;;;7.45;6.38;;;12.70;97.50;;;;;;5109195;27;20781;-47
2021/05/11 03:39:56;;;;;;;10.25;7.80;;;12.70;97.40;;;;;;5108445;27;20824;-47
2021/05/11 03:42:28;;;;;;;8.65;7.45;;;12.70;98.10;;;;;;5107017;27;20062;-46
2021/05/11 03:44:57;;;;;;;9.98;8.75;;;12.60;98.10;;;;;;5107566;28;20047;-46
2021/05/11 03:47:25;;;;;;;8.80;7.25;;;12.60;98.00;;;;;;5099708;28;20081;-47
2021/05/11 03:49:51;;;;;;;7.63;5.40;;;12.60;98.00;;;;;;5114000;27;20048;-48
2021/05/11 03:52:17;;;;;;;7.57;4.43;;;12.60;98.10;;;;;;5109345;27;20051;-46
2021/05/11 03:54:43;;;;;;;9.10;4.90;;;12.60;97.80;;;;;;5110287;28;20047;-49
2021/05/11 03:57:12;;;;;;;6.10;3.80;;;12.60;97.80;;;;;;5103758;27;20128;-47
2021/05/11 03:59:39;;;;;;;5.28;4.03;;;12.60;97.90;;;;;;5109436;28;20095;-49
2021/05/11 04:02:05;;;;;;;8.00;4.43;;;12.60;97.90;;;;;;5108593;27;20047;-49
2021/05/11 04:04:32;;;;;;;8.43;4.22;;;12.60;97.70;;;;;;5072311;28;20067;-47
2021/05/11 04:06:58;;;;;;;8.23;3.97;;;12.50;97.70;;;;;;5108515;27;20135;-46
2021/05/11 04:09:31;;;;;;;6.03;4.10;;;12.60;97.90;;;;;;5109165;28;20055;-45
2021/05/11 04:17:04;;;;;;;7.95;2.85;;;12.60;97.30;;;;;;5095620;27;20580;-45
2021/05/11 04:19:32;;;;;;;4.88;3.25;;;12.50;97.10;;;;;;5108997;28;20807;-46
2021/05/11 04:21:58;;;;;;;4.18;2.30;;;12.60;97.10;;;;;;5089024;28;20056;-44
2021/05/11 04:24:26;;;;;;;3.95;2.95;;;12.60;97.10;;;;;;5069944;28;20138;-45
2021/05/11 04:26:52;;;;;;;4.72;3.10;;;12.50;97.00;;;;;;5089508;27;20909;-45
2021/05/11 04:29:18;;;;;;;5.35;3.70;;;12.50;96.90;;;;;;5088477;28;20051;-44
2021/05/11 04:31:44;;;;;;;4.70;3.15;;;12.50;96.90;;;;;;5091548;27;20056;-44
2021/05/11 04:34:10;;;;;;;5.63;2.85;;;12.50;97.00;;;;;;5088180;28;20086;-45
2021/05/11 04:36:36;;;;;;;5.43;3.15;;;12.60;96.90;;;;;;5089574;28;20102;-45
2021/05/11 04:39:04;;;;;;;4.72;2.47;;;12.60;96.80;;;;;;5099328;27;20044;-44
2021/05/11 04:41:30;;;;;;;4.00;2.30;;;12.60;96.70;;;;;;5097878;28;20047;-46
2021/05/11 04:43:58;;;;;;;5.70;1.95;;;12.60;96.50;;;;;;5105054;28;20098;-46
2021/05/11 04:46:28;;;;;;;6.40;2.20;;;12.60;96.30;;;;;;5091095;27;20379;-46
2021/05/11 04:48:54;;;;;;;5.30;2.35;;;12.70;96.30;;;;;;5099084;27;20729;-45
2021/05/11 04:51:22;;;;;;;4.72;2.30;;;12.70;96.20;;;;;;5101218;27;20043;-45
2021/05/11 04:53:48;;;;;;;4.43;2.70;;;12.70;96.30;;;;;;5091521;28;20051;-44
2021/05/11 04:56:15;;;;;;;4.03;2.20;;;12.70;96.30;;;;;;5097663;28;20059;-45
2021/05/11 04:58:41;;;;;;;4.20;2.40;;;12.70;96.10;;;;;;5106850;27;20138;-45
2021/05/11 05:01:07;;;;;;;10.50;7.75;;;12.70;96.20;;;;;;5074141;28;20051;-45
2021/05/11 05:03:40;;;;;;;32.42;26.85;;;12.90;96.30;;;;;;5110652;28;20051;-45
2021/05/11 05:06:07;;;;;;;26.25;21.40;;;12.90;96.30;;;;;;5106757;28;20058;-43
2021/05/11 05:08:33;;;;;;;30.42;24.50;;;13.00;96.30;;;;;;5096839;28;20067;-43
2021/05/11 05:10:59;;;;;;;21.70;18.13;;;13.00;96.30;;;;;;5074855;28;20487;-43
2021/05/11 05:13:27;;;;;;;31.75;27.02;;;13.10;96.10;;;;;;5107257;28;20084;-43
2021/05/11 05:15:55;;;;;;;8.52;5.78;;;13.20;96.00;;;;;;5107690;28;20043;-44
2021/05/11 05:18:26;;;;;;;10.18;7.57;;;13.30;95.90;;;;;;5107510;28;20068;-43
2021/05/11 05:20:59;;;;;;;8.20;5.80;;;13.20;95.90;;;;;;5089481;28;20056;-44
2021/05/11 05:23:33;;;;;;;6.57;4.70;;;13.20;95.90;;;;;;5106193;28;20051;-44
2021/05/11 05:26:09;;;;;;;31.30;27.05;;;13.30;96.10;;;;;;5105607;27;20055;-44
2021/05/11 05:28:41;;;;;;;30.40;27.08;;;13.30;96.00;;;;;;5120663;27;20051;-43
2021/05/11 05:31:07;;;;;;;7.38;5.65;;;13.30;96.10;;;;;;5101649;28;20613;-44
2021/05/11 05:33:39;;;;;;;9.38;8.05;;;13.30;96.30;;;;;;5093664;28;20044;-44
2021/05/11 05:36:07;;;;;;;6.22;4.28;;;13.30;96.30;;;;;;5090421;28;20102;-43
2021/05/11 05:38:35;;;;;;;5.88;4.30;;;13.30;96.50;;;;;;5088733;28;20051;-45
2021/05/11 05:41:05;;;;;;;5.38;3.90;;;13.40;96.50;;;;;;5086748;28;20054;-43
2021/05/11 05:43:34;;;;;;;9.23;6.70;;;13.50;96.60;;;;;;5097972;28;20067;-44
2021/05/11 05:46:00;;;;;;;9.73;6.40;;;13.60;96.60;;;;;;5107532;28;20117;-45
2021/05/11 05:48:29;;;;;;;99.35;88.72;;;13.70;96.30;;;;;;5107369;28;20066;-44
2021/05/11 05:50:59;;;;;;;5.72;3.30;;;13.80;96.00;;;;;;5089092;28;20047;-42
2021/05/11 05:53:34;;;;;;;4.78;2.70;;;13.90;96.00;;;;;;5106690;28;20079;-45
2021/05/11 05:56:05;;;;;;;36.90;32.97;;;14.00;95.80;;;;;;5088385;28;20039;-45
2021/05/11 05:58:39;;;;;;;13.80;8.27;;;14.00;95.70;;;;;;5106202;28;20053;-44
2021/05/11 06:01:09;;;;;;;6.00;4.50;;;14.00;95.60;;;;;;5106319;28;20052;-44
2021/05/11 06:04:00;;;;;;;3.58;1.85;;;14.00;95.50;;;;;;5103610;28;20048;-44
2021/05/11 06:06:48;;;;;;;2.95;1.95;;;13.90;95.30;;;;;;5088069;28;20051;-45
2021/05/11 06:09:18;;;;;;;4.82;3.42;;;13.90;95.50;;;;;;5108147;28;20044;-44
2021/05/11 06:11:49;;;;;;;3.60;2.17;;;13.90;95.40;;;;;;5106706;28;20058;-45
2021/05/11 06:19:29;;;;;;;3.65;2.15;;;13.80;95.40;;;;;;5106916;28;20059;-44
2021/05/11 06:21:55;;;;;;;2.83;1.58;;;13.80;95.50;;;;;;5106765;28;20066;-44
2021/05/11 06:24:21;;;;;;;3.88;2.03;;;13.80;95.50;;;;;;5106675;28;20617;-43
2021/05/11 06:26:50;;;;;;;3.40;2.05;;;13.80;95.30;;;;;;5102368;28;20138;-43
2021/05/11 06:29:19;;;;;;;3.33;2.35;;;13.70;95.50;;;;;;5106799;28;20062;-44
2021/05/11 06:31:45;;;;;;;3.95;2.97;;;13.80;95.60;;;;;;5106805;28;20427;-44
2021/05/11 06:34:11;;;;;;;8.25;7.00;;;13.80;95.70;;;;;;5107339;28;20135;-44
2021/05/11 06:36:37;;;;;;;4.47;2.67;;;13.80;95.80;;;;;;5106446;28;20043;-45
2021/05/11 06:39:08;;;;;;;8.43;3.50;;;13.80;95.90;;;;;;5106907;28;20051;-48
2021/05/11 06:41:36;;;;;;;5.32;3.03;;;13.90;95.90;;;;;;5107075;28;20479;-45
2021/05/11 06:55:07;;;;;;;4.55;3.83;;;14.00;96.00;;;;;;5072133;28;20139;-45
2021/05/11 06:57:33;;;;;;;4.47;3.70;;;14.10;96.20;;;;;;5096898;28;20503;-44
2021/05/11 07:00:00;;;;;;;7.25;3.97;;;14.00;96.10;;;;;;5110276;28;20047;-47
2021/05/11 07:02:26;;;;;;;4.40;3.80;;;14.00;96.20;;;;;;5109668;28;20078;-46
2021/05/11 07:04:53;;;;;;;4.15;2.85;;;14.00;96.20;;;;;;5110196;28;20051;-44
2021/05/11 07:07:20;;;;;;;5.07;4.13;;;13.90;96.00;;;;;;5109806;28;20062;-45
2021/05/11 07:15:02;;;;;;;4.65;2.83;;;14.00;96.10;;;;;;5110250;28;20048;-44
2021/05/11 07:17:28;;;;;;;5.05;2.30;;;14.00;95.90;;;;;;5110416;28;20403;-44
2021/05/11 07:19:55;;;;;;;6.28;2.72;;;13.90;95.70;;;;;;5094064;28;20484;-44
2021/05/11 07:22:22;;;;;;;4.55;2.60;;;14.00;95.80;;;;;;5090982;28;20044;-45
2021/05/11 07:24:52;;;;;;;4.88;2.70;;;13.90;95.60;;;;;;5107926;28;20074;-45
2021/05/11 07:32:21;;;;;;;5.80;3.72;;;14.00;95.70;;;;;;5111223;28;20043;-44
2021/05/11 07:34:50;;;;;;;4.85;3.17;;;14.10;95.70;;;;;;5104308;28;20052;-44
2021/05/11 07:37:16;;;;;;;5.85;4.25;;;14.10;95.50;;;;;;5089387;28;20364;-44
2021/05/11 07:39:45;;;;;;;4.20;3.17;;;14.20;95.60;;;;;;5071438;28;20060;-43
2021/05/11 07:42:12;;;;;;;5.30;3.90;;;14.30;95.60;;;;;;5088859;28;20509;-46
2021/05/11 07:44:45;;;;;;;4.05;2.90;;;14.30;95.50;;;;;;5092748;28;20082;-45
2021/05/11 08:06:09;;;;;;;;;;;14.70;94.40;;;;;;5087526;28;20074;-45
2021/05/11 08:16:39;;;;;;;5.85;4.20;;;15.20;93.70;;;;;;5092014;28;20074;-44
2021/05/11 08:29:45;;;;;;;5.15;4.65;;;15.30;93.20;;;;;;5088294;28;20071;-45
2021/05/11 08:32:15;;;;;;;6.30;4.90;;;15.30;93.30;;;;;;5088499;28;20131;-44
2021/05/11 08:34:42;;;;;;;8.75;7.57;;;15.40;93.50;;;;;;5098005;28;20040;-43
2021/05/11 08:37:15;;;;;;;8.27;5.95;;;15.50;93.00;;;;;;5108409;28;20070;-45
2021/05/11 08:39:43;;;;;;;7.95;7.25;;;15.70;93.10;;;;;;5109537;28;20080;-44
2021/05/11 08:42:10;;;;;;;5.75;4.95;;;15.90;93.30;;;;;;5109312;28;20074;-42
2021/05/11 08:44:36;;;;;;;7.65;6.82;;;16.00;92.50;;;;;;5111333;28;20101;-43
2021/05/11 08:47:05;;;;;;;5.20;4.70;;;16.00;92.30;;;;;;5107641;28;20463;-43
2021/05/11 08:49:32;;;;;;;6.47;4.25;;;16.10;92.00;;;;;;5107120;28;20077;-43
2021/05/11 09:25:31;;;;;;;3.45;1.73;;;16.50;86.80;;;;;;5083184;28;20181;-42
2021/05/11 09:28:04;;;;;;;3.88;1.83;;;16.50;85.00;;;;;;5084187;28;20091;-46
2021/05/11 09:31:03;;;;;;;3.22;1.50;;;16.70;86.10;;;;;;5083823;28;20563;-44
2021/05/11 09:56:18;;;;;;;2.63;1.20;;;17.40;84.20;;;;;;5087712;28;20507;-45
2021/05/11 10:40:34;;;;;;;2.03;1.10;;;19.40;76.60;;;;;;5089712;28;20898;-47
2021/05/11 10:48:28;;;;;;;3.47;1.38;;;19.00;77.30;;;;;;5091031;28;20086;-46
2021/05/11 10:51:04;;;;;;;3.17;1.10;;;19.00;75.50;;;;;;5090232;28;20048;-47
2021/05/11 10:53:58;;;;;;;2.88;1.10;;;19.10;75.60;;;;;;5093073;28;20411;-48
2021/05/11 10:56:31;;;;;;;2.65;1.30;;;19.30;76.10;;;;;;5112976;28;20666;-47
2021/05/11 11:05:02;;;;;;;2.35;1.10;;;21.40;69.90;;;;;;5059574;28;20072;-48
2021/05/11 11:07:33;;;;;;;2.63;0.75;;;21.40;70.60;;;;;;5046753;28;20076;-47
2021/05/11 11:10:00;;;;;;;1.88;1.00;;;21.70;69.60;;;;;;5047865;28;20144;-46
2021/05/11 11:12:53;;;;;;;2.20;1.00;;;21.40;68.20;;;;;;5047029;28;20143;-48
2021/05/11 11:15:20;;;;;;;2.70;1.05;;;21.10;67.80;;;;;;5047103;28;20519;-46
2021/05/11 11:17:50;;;;;;;2.42;0.90;;;21.00;70.70;;;;;;5046340;28;20208;-45
2021/05/11 11:20:19;;;;;;;1.65;0.98;;;20.50;70.30;;;;;;5046606;28;20041;-47
2021/05/11 11:26:01;;;;;;;2.35;1.17;;;19.80;72.50;;;;;;5053977;28;20044;-47
2021/05/11 11:28:30;;;;;;;5.68;1.75;;;19.50;73.70;;;;;;5051571;28;20057;-47
2021/05/11 11:30:57;;;;;;;3.10;1.17;;;19.30;74.50;;;;;;5046166;28;20504;-47
2021/05/11 11:33:23;;;;;;;3.58;1.42;;;19.20;75.20;;;;;;5062705;28;20524;-47
2021/05/11 11:35:49;;;;;;;2.25;1.08;;;19.10;75.60;;;;;;5045813;28;20075;-48
2021/05/11 11:38:24;;;;;;;3.80;1.20;;;19.00;75.50;;;;;;5060699;28;20060;-47
2021/05/11 11:40:57;;;;;;;2.47;1.20;;;18.70;76.10;;;;;;5096628;28;20043;-48
2021/05/11 11:43:30;;;;;;;2.20;1.30;;;18.50;76.10;;;;;;5096322;28;20106;-46
2021/05/11 11:45:57;;;;;;;1.95;1.25;;;18.40;77.40;;;;;;5089769;28;20566;-49
2021/05/11 11:48:24;;;;;;;1.67;1.15;;;18.00;78.20;;;;;;5094735;28;20464;-47
2021/05/11 11:50:58;;;;;;;1.30;1.20;;;17.90;78.20;;;;;;5103515;28;20774;-45
2021/05/11 11:53:33;;;;;;;2.03;1.30;;;17.80;80.20;;;;;;5096536;28;20503;-47
2021/05/11 11:58:32;;;;;;;3.03;2.05;;;17.50;79.90;;;;;;5103486;28;20071;-48
2021/05/11 12:00:58;;;;;;;2.75;2.20;;;17.50;81.30;;;;;;5102800;28;20496;-47
2021/05/11 12:03:25;;;;;;;3.92;2.83;;;17.30;81.90;;;;;;5113581;28;20108;-49
2021/05/11 12:05:53;;;;;;;4.22;3.03;;;17.30;82.60;;;;;;5109239;28;20140;-49
2021/05/11 12:08:21;;;;;;;4.63;3.05;;;17.30;83.30;;;;;;5109058;28;20055;-49
2021/05/11 12:11:10;;;;;;;3.90;3.50;;;17.30;83.50;;;;;;5108440;28;20876;-46
2021/05/11 12:13:38;;;;;;;22.92;5.32;;;17.40;82.40;;;;;;5108997;28;20135;-46
2021/05/11 12:16:16;;;;;;;4.68;3.13;;;17.30;82.20;;;;;;5086816;28;20052;-50
2021/05/11 12:19:01;;;;;;;4.03;2.92;;;17.10;81.60;;;;;;5087525;28;20056;-47
2021/05/11 12:21:28;;;;;;;4.25;3.20;;;17.20;81.80;;;;;;5086428;28;20040;-48
2021/05/11 12:24:23;;;;;;;4.25;3.25;;;17.20;82.60;;;;;;5086517;28;20052;-45
2021/05/11 12:26:50;;;;;;;3.88;2.80;;;16.90;82.20;;;;;;5080990;28;20066;-46
2021/05/11 12:29:18;;;;;;;3.60;2.92;;;16.80;82.30;;;;;;5085747;28;20079;-45
2021/05/11 12:31:47;;;;;;;4.88;3.13;;;16.80;83.40;;;;;;5088905;28;20488;-50
2021/05/11 12:34:27;;;;;;;3.92;3.30;;;16.80;83.40;;;;;;5083833;28;20488;-47
2021/05/11 12:37:01;;;;;;;3.85;2.55;;;16.80;83.90;;;;;;5085654;28;20446;-47
2021/05/11 12:42:15;;;;;;;4.75;2.90;;;16.80;83.40;;;;;;5102268;28;20052;-47
2021/05/11 12:44:42;;;;;;;4.28;2.22;;;16.90;83.60;;;;;;5111532;28;20039;-49
2021/05/11 12:47:09;;;;;;;3.50;2.40;;;16.90;83.10;;;;;;5105888;28;20051;-46
2021/05/11 12:49:38;;;;;;;3.90;2.55;;;16.90;83.00;;;;;;5105829;28;20047;-46
2021/05/11 12:52:08;;;;;;;4.28;3.03;;;16.90;83.00;;;;;;5105110;28;20044;-45
2021/05/11 12:54:43;;;;;;;2.50;2.30;;;16.90;83.30;;;;;;5105373;28;20797;-48
2021/05/11 12:57:21;;;;;;;3.58;2.78;;;16.90;83.40;;;;;;5109145;28;20050;-47
2021/05/11 13:00:08;;;;;;;2.80;2.20;;;17.00;83.30;;;;;;5103938;28;20051;-50
2021/05/11 13:02:50;;;;;;;4.20;2.60;;;17.00;83.00;;;;;;5106568;28;20047;-46
2021/05/11 13:09:24;;;;;;;3.58;2.90;;;17.10;83.90;;;;;;5108019;28;20495;-46
2021/05/11 13:16:58;;;;;;;4.13;2.70;;;17.30;83.90;;;;;;5106146;28;20052;-47
2021/05/11 13:25:14;;;;;;;4.30;2.50;;;17.50;83.10;;;;;;5088108;28;20838;-46
2021/05/11 13:30:22;;;;;;;4.53;3.28;;;17.30;84.20;;;;;;5107069;28;20044;-47
2021/05/11 13:35:21;;;;;;;4.88;2.50;;;17.40;85.00;;;;;;5086861;28;20190;-48
2021/05/11 13:37:47;;;;;;;3.92;2.97;;;17.10;85.10;;;;;;5086595;28;20048;-48
2021/05/11 13:40:13;;;;;;;2.47;2.20;;;16.90;86.30;;;;;;5089943;28;20048;-47
2021/05/11 13:42:42;;;;;;;2.90;2.30;;;16.70;87.50;;;;;;5087190;28;20498;-47
2021/05/11 13:45:08;;;;;;;3.00;2.25;;;16.50;88.90;;;;;;5086355;28;20047;-48
2021/05/11 13:47:35;;;;;;;3.83;1.85;;;16.40;90.00;;;;;;5085084;28;20512;-48
2021/05/11 13:50:04;;;;;;;1.55;1.10;;;16.30;89.70;;;;;;5085638;28;20052;-45
2021/05/11 13:52:32;;;;;;;1.30;1.20;;;16.20;88.70;;;;;;5087372;28;20048;-46
2021/05/11 13:55:03;;;;;;;2.38;1.30;;;16.00;88.80;;;;;;5085960;28;20052;-47
2021/05/11 14:02:49;;;;;;;1.77;1.20;;;15.90;89.50;;;;;;5089029;28;20040;-50
2021/05/11 14:05:16;;;;;;;2.15;0.98;;;16.00;89.50;;;;;;5085325;28;20086;-46
2021/05/11 14:07:44;;;;;;;1.63;1.15;;;16.00;90.10;;;;;;5085895;28;20139;-46
2021/05/11 14:10:10;;;;;;;2.50;1.52;;;16.00;89.50;;;;;;5084239;28;20052;-49
2021/05/11 14:12:37;;;;;;;2.83;1.45;;;16.00;89.70;;;;;;5067236;28;20052;-44
2021/05/11 14:15:06;;;;;;;3.92;1.90;;;16.00;89.70;;;;;;5086862;28;20050;-45
2021/05/11 14:17:32;;;;;;;2.40;1.77;;;16.10;90.20;;;;;;5090649;28;20052;-45
2021/05/11 14:19:59;;;;;;;2.10;1.80;;;16.20;90.40;;;;;;5085160;28;20047;-46
2021/05/11 14:22:26;;;;;;;1.80;1.45;;;16.20;90.90;;;;;;5085678;28;20048;-48
2021/05/11 14:24:52;;;;;;;2.35;2.03;;;16.10;90.30;;;;;;5093567;28;20043;-48
2021/05/11 14:27:21;;;;;;;4.78;2.10;;;16.10;90.30;;;;;;5105377;28;20051;-46
2021/05/11 14:29:47;;;;;;;2.58;2.13;;;16.10;90.30;;;;;;5103938;28;20047;-46
2021/05/11 14:32:14;;;;;;;3.08;2.08;;;16.00;90.40;;;;;;5106131;28;20071;-49
2021/05/11 14:34:40;;;;;;;2.55;2.08;;;16.10;90.70;;;;;;5104122;28;20051;-46
2021/05/11 14:37:07;;;;;;;3.30;1.90;;;16.10;90.50;;;;;;5105982;28;20105;-45
2021/05/11 14:39:36;;;;;;;3.38;2.45;;;16.10;90.40;;;;;;5105124;28;20048;-48
2021/05/11 14:42:04;;;;;;;2.47;2.17;;;16.00;90.70;;;;;;5106131;28;20044;-48
2021/05/11 14:44:30;;;;;;;5.63;3.00;;;15.90;90.80;;;;;;5106525;28;20098;-50
2021/05/11 14:46:57;;;;;;;2.83;2.20;;;15.90;91.00;;;;;;5100802;28;20083;-46
2021/05/11 14:49:23;;;;;;;2.75;2.05;;;15.80;91.20;;;;;;5086734;28;20043;-46
2021/05/11 14:51:50;;;;;;;2.10;1.73;;;15.70;91.20;;;;;;5085755;28;20101;-46
2021/05/11 14:54:16;;;;;;;2.53;2.00;;;15.80;91.20;;;;;;5089408;28;20073;-49
2021/05/11 14:56:42;;;;;;;3.00;1.77;;;15.80;91.10;;;;;;5103348;28;20058;-47
2021/05/11 14:59:11;;;;;;;3.20;1.60;;;15.80;90.50;;;;;;5105271;28;20062;-46
2021/05/11 15:01:41;;;;;;;3.13;2.00;;;15.80;90.20;;;;;;5105093;28;20146;-45
2021/05/11 15:04:07;;;;;;;2.75;1.50;;;15.90;90.20;;;;;;5091671;28;20466;-45
2021/05/11 15:06:34;;;;;;;2.72;1.50;;;16.00;90.30;;;;;;5107025;28;20047;-48
2021/05/11 15:09:00;;;;;;;3.60;1.60;;;15.90;90.20;;;;;;5113235;28;20054;-51
2021/05/11 15:11:26;;;;;;;2.88;1.73;;;15.90;90.30;;;;;;5098608;28;20097;-47
2021/05/11 15:13:55;;;;;;;3.03;1.75;;;16.00;90.20;;;;;;5101892;28;20043;-46
2021/05/11 15:16:23;;;;;;;2.80;1.63;;;16.10;90.10;;;;;;5110657;28;20051;-49
2021/05/11 15:18:52;;;;;;;2.70;1.60;;;16.10;89.40;;;;;;5110827;28;20056;-48
2021/05/11 15:21:18;;;;;;;2.58;1.50;;;15.90;89.80;;;;;;5114248;28;20126;-50
2021/05/11 15:23:47;;;;;;;3.75;1.85;;;15.90;90.10;;;;;;5111158;28;20055;-47
2021/05/11 15:26:17;;;;;;;2.95;1.77;;;15.90;90.50;;;;;;5127702;27;20039;-51
2021/05/11 15:28:43;;;;;;;4.60;1.90;;;15.80;90.50;;;;;;5131086;27;20047;-48
2021/05/11 15:31:10;;;;;;;2.75;2.05;;;15.80;90.50;;;;;;5112053;27;20047;-49
2021/05/11 15:33:36;;;;;;;5.43;2.42;;;15.90;90.40;;;;;;5132505;27;20368;-49
2021/05/11 15:36:03;;;;;;;4.93;2.10;;;15.80;90.40;;;;;;5130794;27;20406;-46
2021/05/11 15:38:31;;;;;;;5.10;2.55;;;15.80;90.40;;;;;;5130246;27;20134;-44
2021/05/11 15:40:57;;;;;;;3.38;1.95;;;15.70;90.40;;;;;;5131571;27;20079;-45
2021/05/11 15:43:24;;;;;;;2.58;1.83;;;15.70;90.50;;;;;;5130773;27;20043;-45
2021/05/11 15:45:50;;;;;;;2.45;1.73;;;15.70;90.50;;;;;;5130697;27;20054;-46
2021/05/11 15:48:17;;;;;;;2.53;2.15;;;15.70;90.50;;;;;;5137676;27;20039;-44
2021/05/11 15:50:46;;;;;;;4.45;1.90;;;15.70;90.50;;;;;;5112456;27;20047;-45
2021/05/11 15:53:18;;;;;;;3.85;2.33;;;15.80;90.30;;;;;;5109109;28;20505;-47
2021/05/11 15:55:49;;;;;;;3.50;2.08;;;15.70;90.30;;;;;;5091011;28;20051;-48
2021/05/11 15:58:18;;;;;;;3.85;2.17;;;15.70;90.30;;;;;;5109398;28;20044;-46
2021/05/11 16:00:49;;;;;;;3.03;1.80;;;15.70;90.20;;;;;;5109716;28;20082;-44
2021/05/11 16:03:15;;;;;;;3.38;1.80;;;15.70;90.10;;;;;;5109812;28;20055;-44
2021/05/11 16:05:41;;;;;;;4.15;1.95;;;15.70;90.00;;;;;;5109669;28;20055;-45
2021/05/11 16:08:15;;;;;;;4.32;1.92;;;15.70;90.00;;;;;;5109280;28;20063;-45
2021/05/11 16:10:43;;;;;;;3.92;1.70;;;15.70;89.90;;;;;;5108881;28;20181;-49
2021/05/11 16:13:11;;;;;;;4.15;2.42;;;15.70;89.50;;;;;;5108070;28;20550;-45
2021/05/11 16:15:40;;;;;;;2.25;1.83;;;15.60;89.40;;;;;;5109395;28;20556;-46
2021/05/11 16:18:06;;;;;;;4.50;1.90;;;15.60;89.50;;;;;;5108993;28;20100;-48
2021/05/11 16:20:32;;;;;;;5.82;2.42;;;15.60;88.90;;;;;;5108665;28;20047;-44
2021/05/11 16:22:59;;;;;;;3.10;2.30;;;15.50;89.30;;;;;;5114476;28;20040;-47
2021/05/11 16:25:25;;;;;;;2.92;2.28;;;15.40;89.30;;;;;;5108789;28;20055;-47
2021/05/11 16:27:51;;;;;;;3.70;2.60;;;15.40;89.40;;;;;;5090249;28;20055;-45
2021/05/11 16:30:19;;;;;;;6.50;2.63;;;15.40;89.70;;;;;;5108889;28;20185;-46
2021/05/11 16:32:46;;;;;;;4.88;2.25;;;15.40;89.50;;;;;;5108893;28;20471;-45
2021/05/11 16:35:13;;;;;;;4.35;2.35;;;15.40;89.50;;;;;;5108673;28;20486;-47
2021/05/11 16:37:40;;;;;;;4.82;3.03;;;15.40;89.60;;;;;;5109919;28;20395;-45
2021/05/11 16:40:08;;;;;;;4.07;2.95;;;15.30;89.80;;;;;;5108778;28;20043;-45
2021/05/11 16:42:35;;;;;;;5.95;2.95;;;15.30;89.80;;;;;;5111145;28;20050;-46
2021/05/11 16:45:04;;;;;;;3.88;2.70;;;15.30;89.70;;;;;;5109283;28;20048;-47
2021/05/11 16:47:32;;;;;;;5.22;2.88;;;15.30;89.60;;;;;;5108971;28;20052;-44
2021/05/11 16:49:58;;;;;;;5.03;2.90;;;15.20;89.80;;;;;;5109096;28;20048;-47
2021/05/11 16:52:24;;;;;;;5.15;2.95;;;15.20;90.10;;;;;;5108979;28;20096;-47
2021/05/11 16:54:50;;;;;;;3.85;3.13;;;15.20;90.10;;;;;;5120831;27;20058;-46
2021/05/11 16:57:17;;;;;;;6.10;3.70;;;15.20;90.10;;;;;;5108264;28;20047;-47
2021/05/11 16:59:43;;;;;;;5.40;3.33;;;15.20;90.00;;;;;;5096924;27;20073;-47
2021/05/11 17:02:09;;;;;;;4.05;3.40;;;15.20;90.10;;;;;;5130142;27;20466;-46
2021/05/11 17:04:35;;;;;;;5.25;3.50;;;15.10;90.10;;;;;;5110365;27;20406;-45
2021/05/11 17:07:03;;;;;;;5.85;3.60;;;15.20;90.10;;;;;;5128732;27;20130;-46
2021/05/11 17:09:31;;;;;;;5.18;4.03;;;15.10;90.10;;;;;;5128689;27;20142;-47
2021/05/11 17:11:57;;;;;;;4.85;4.15;;;15.10;90.30;;;;;;5127776;27;20188;-45
2021/05/11 17:14:25;;;;;;;5.85;4.07;;;15.10;90.40;;;;;;5134386;27;20100;-46
2021/05/11 17:16:51;;;;;;;4.53;3.92;;;15.10;90.50;;;;;;5128197;27;20549;-50
2021/05/11 17:19:17;;;;;;;6.32;4.03;;;15.00;90.60;;;;;;5128104;27;20055;-46